This is the latest recevied weather packets stored in our database for station/object N4DBJ. If no packets are shown the sender has not sent any weather packets the latest 10 day(s).
| Time | Temp. | Humidity | Pressure | Rain* | Wind** | Luminosity | Snow |
|---|---|---|---|---|---|---|---|
| 1777322942 | 27.78° C | 63% | 1008.7 hPa | 0 mm | - | 469 W/m² | - |
| 1777322641 | 27.78° C | 61% | 1008.7 hPa | 0 mm | - | 454 W/m² | - |
| 1777322338 | 28.33° C | 62% | 1008.7 hPa | 0 mm | - | 201 W/m² | - |
| 1777322035 | 28.33° C | 61% | 1008.7 hPa | 0 mm | - | 493 W/m² | - |
| 1777321731 | 28.33° C | 64% | 1008.9 hPa | 0 mm | - | 534 W/m² | - |
| 1777321428 | 28.33° C | 62% | 1009.1 hPa | 0 mm | - | 540 W/m² | - |
| 1777321125 | 28.33° C | 63% | 1009.1 hPa | 0 mm | - | 558 W/m² | - |
| 1777320823 | 28.33° C | 62% | 1009.3 hPa | 0 mm | - | 531 W/m² | - |
| 1777320519 | 28.89° C | 63% | 1009.5 hPa | 0 mm | - | 330 W/m² | - |
| 1777320217 | 28.33° C | 64% | 1009.6 hPa | 0 mm | - | 621 W/m² | - |
| 1777319913 | 27.22° C | 64% | 1009.6 hPa | 0 mm | - | 597 W/m² | - |
| 1777319611 | 28.33° C | 64% | 1009.7 hPa | 0 mm | - | 308 W/m² | - |
| 1777319308 | 27.78° C | 64% | 1009.9 hPa | 0 mm | - | 510 W/m² | - |
| 1777319005 | 27.22° C | 64% | 1010.1 hPa | 0 mm | - | 730 W/m² | - |
| 1777318702 | 27.78° C | 64% | 1009.8 hPa | 0 mm | - | 370 W/m² | - |
| 1777318397 | 27.78° C | 63% | 1009.9 hPa | 0 mm | - | 366 W/m² | - |
| 1777318095 | 27.78° C | 65% | 1009.8 hPa | 0 mm | - | 411 W/m² | - |
| 1777317791 | 27.78° C | 62% | 1010.3 hPa | 0 mm | - | 588 W/m² | - |
| 1777317489 | 27.78° C | 64% | 1010.3 hPa | 0 mm | - | 665 W/m² | - |
| 1777317185 | 27.78° C | 62% | 1010.2 hPa | 0 mm | - | 702 W/m² | - |
| 1777316881 | 27.22° C | 63% | 1010.2 hPa | 0 mm | - | 760 W/m² | - |
| 1777316578 | 26.67° C | 63% | 1010.3 hPa | 0 mm | - | 409 W/m² | - |
| 1777316275 | 26.67° C | 66% | 1010.2 hPa | 0 mm | - | 393 W/m² | - |
| 1777315972 | 26.67° C | 65% | 1010.5 hPa | 0 mm | - | 271 W/m² | - |
| 1777315670 | 26.67° C | 65% | 1010.6 hPa | 0 mm | - | 321 W/m² | - |
* Rain latest hour (hover to see other rain measurements)
** Current wind speed in m/s (hover to see current wind gust speed)